sensor_id;sensor_type;location;lat;lon;timestamp;P1;durP1;ratioP1;P2;durP2;ratioP2
3341;SDS011;1684;50.748;6.154;2023-05-21T00:01:25;17.10;;;13.40;;
3341;SDS011;1684;50.748;6.154;2023-05-21T00:03:54;14.50;;;11.77;;
3341;SDS011;1684;50.748;6.154;2023-05-21T00:06:25;15.13;;;12.50;;
3341;SDS011;1684;50.748;6.154;2023-05-21T00:08:54;15.40;;;12.27;;
3341;SDS011;1684;50.748;6.154;2023-05-21T00:11:23;18.73;;;12.30;;
3341;SDS011;1684;50.748;6.154;2023-05-21T00:13:51;15.70;;;12.93;;
3341;SDS011;1684;50.748;6.154;2023-05-21T00:16:19;13.33;;;11.13;;
3341;SDS011;1684;50.748;6.154;2023-05-21T00:18:48;13.73;;;10.87;;
3341;SDS011;1684;50.748;6.154;2023-05-21T00:21:16;13.80;;;11.27;;
3341;SDS011;1684;50.748;6.154;2023-05-21T00:23:48;13.50;;;11.20;;
3341;SDS011;1684;50.748;6.154;2023-05-21T00:26:17;13.53;;;12.17;;
3341;SDS011;1684;50.748;6.154;2023-05-21T00:28:46;14.53;;;12.70;;
3341;SDS011;1684;50.748;6.154;2023-05-21T00:31:14;14.27;;;12.20;;
3341;SDS011;1684;50.748;6.154;2023-05-21T00:33:44;14.50;;;12.07;;
3341;SDS011;1684;50.748;6.154;2023-05-21T00:36:12;12.90;;;11.57;;
3341;SDS011;1684;50.748;6.154;2023-05-21T00:38:41;13.63;;;11.63;;
3341;SDS011;1684;50.748;6.154;2023-05-21T00:41:11;16.47;;;11.43;;
3341;SDS011;1684;50.748;6.154;2023-05-21T00:43:41;14.60;;;12.37;;
3341;SDS011;1684;50.748;6.154;2023-05-21T00:46:19;12.33;;;11.03;;
3341;SDS011;1684;50.748;6.154;2023-05-21T00:48:48;13.73;;;11.10;;
3341;SDS011;1684;50.748;6.154;2023-05-21T00:51:17;13.77;;;11.50;;
3341;SDS011;1684;50.748;6.154;2023-05-21T00:53:48;17.23;;;12.20;;
3341;SDS011;1684;50.748;6.154;2023-05-21T00:56:16;13.10;;;11.70;;
3341;SDS011;1684;50.748;6.154;2023-05-21T00:58:46;14.10;;;12.33;;
3341;SDS011;1684;50.748;6.154;2023-05-21T01:01:14;14.60;;;11.50;;
3341;SDS011;1684;50.748;6.154;2023-05-21T01:03:43;19.23;;;12.33;;
3341;SDS011;1684;50.748;6.154;2023-05-21T01:06:14;13.53;;;11.87;;
3341;SDS011;1684;50.748;6.154;2023-05-21T01:08:42;14.97;;;12.30;;
3341;SDS011;1684;50.748;6.154;2023-05-21T01:11:10;15.13;;;12.80;;
3341;SDS011;1684;50.748;6.154;2023-05-21T01:13:40;16.27;;;13.47;;
3341;SDS011;1684;50.748;6.154;2023-05-21T01:16:10;17.67;;;12.90;;
3341;SDS011;1684;50.748;6.154;2023-05-21T01:18:39;15.77;;;12.20;;
3341;SDS011;1684;50.748;6.154;2023-05-21T01:21:09;16.70;;;13.50;;
3341;SDS011;1684;50.748;6.154;2023-05-21T01:23:38;17.50;;;13.90;;
3341;SDS011;1684;50.748;6.154;2023-05-21T01:26:07;14.43;;;10.90;;
3341;SDS011;1684;50.748;6.154;2023-05-21T01:28:38;8.93;;;7.47;;
3341;SDS011;1684;50.748;6.154;2023-05-21T01:31:10;15.57;;;12.77;;
3341;SDS011;1684;50.748;6.154;2023-05-21T01:33:43;10.20;;;8.17;;
3341;SDS011;1684;50.748;6.154;2023-05-21T01:36:14;9.83;;;8.47;;
3341;SDS011;1684;50.748;6.154;2023-05-21T01:38:49;15.37;;;11.67;;
3341;SDS011;1684;50.748;6.154;2023-05-21T01:41:19;15.10;;;11.50;;
3341;SDS011;1684;50.748;6.154;2023-05-21T01:43:48;22.00;;;14.87;;
3341;SDS011;1684;50.748;6.154;2023-05-21T01:46:22;9.37;;;7.80;;
3341;SDS011;1684;50.748;6.154;2023-05-21T01:48:50;11.43;;;8.03;;
3341;SDS011;1684;50.748;6.154;2023-05-21T01:51:19;8.40;;;7.20;;
3341;SDS011;1684;50.748;6.154;2023-05-21T01:53:49;9.90;;;8.00;;
3341;SDS011;1684;50.748;6.154;2023-05-21T01:56:17;11.53;;;8.23;;
3341;SDS011;1684;50.748;6.154;2023-05-21T01:58:48;8.53;;;7.33;;
3341;SDS011;1684;50.748;6.154;2023-05-21T02:01:16;9.37;;;8.00;;
3341;SDS011;1684;50.748;6.154;2023-05-21T02:03:45;10.30;;;7.50;;
3341;SDS011;1684;50.748;6.154;2023-05-21T02:06:13;12.20;;;8.10;;
3341;SDS011;1684;50.748;6.154;2023-05-21T02:08:42;11.60;;;8.30;;
3341;SDS011;1684;50.748;6.154;2023-05-21T02:11:12;8.70;;;7.77;;
3341;SDS011;1684;50.748;6.154;2023-05-21T02:13:40;9.90;;;8.30;;
3341;SDS011;1684;50.748;6.154;2023-05-21T02:16:11;11.13;;;8.90;;
3341;SDS011;1684;50.748;6.154;2023-05-21T02:18:41;9.10;;;7.17;;
3341;SDS011;1684;50.748;6.154;2023-05-21T02:21:09;16.77;;;11.77;;
3341;SDS011;1684;50.748;6.154;2023-05-21T02:23:38;11.37;;;7.23;;
3341;SDS011;1684;50.748;6.154;2023-05-21T02:26:07;10.63;;;8.30;;
3341;SDS011;1684;50.748;6.154;2023-05-21T02:28:37;8.50;;;7.60;;
3341;SDS011;1684;50.748;6.154;2023-05-21T02:31:05;10.80;;;7.90;;
3341;SDS011;1684;50.748;6.154;2023-05-21T02:33:33;11.37;;;7.53;;
3341;SDS011;1684;50.748;6.154;2023-05-21T02:36:02;12.53;;;9.33;;
3341;SDS011;1684;50.748;6.154;2023-05-21T02:38:31;19.33;;;14.60;;
3341;SDS011;1684;50.748;6.154;2023-05-21T02:40:59;20.53;;;14.97;;
3341;SDS011;1684;50.748;6.154;2023-05-21T02:43:27;24.80;;;15.63;;
3341;SDS011;1684;50.748;6.154;2023-05-21T02:45:57;18.60;;;13.60;;
3341;SDS011;1684;50.748;6.154;2023-05-21T02:48:25;22.80;;;15.63;;
3341;SDS011;1684;50.748;6.154;2023-05-21T02:50:57;21.37;;;16.40;;
3341;SDS011;1684;50.748;6.154;2023-05-21T02:53:25;10.97;;;8.77;;
3341;SDS011;1684;50.748;6.154;2023-05-21T02:55:53;20.13;;;14.80;;
3341;SDS011;1684;50.748;6.154;2023-05-21T02:58:22;19.30;;;14.43;;
3341;SDS011;1684;50.748;6.154;2023-05-21T03:00:50;14.97;;;9.87;;
3341;SDS011;1684;50.748;6.154;2023-05-21T03:03:20;21.53;;;14.33;;
3341;SDS011;1684;50.748;6.154;2023-05-21T03:05:49;20.60;;;15.83;;
3341;SDS011;1684;50.748;6.154;2023-05-21T03:08:18;15.10;;;12.00;;
3341;SDS011;1684;50.748;6.154;2023-05-21T03:10:46;20.30;;;16.40;;
3341;SDS011;1684;50.748;6.154;2023-05-21T03:13:14;22.30;;;16.33;;
3341;SDS011;1684;50.748;6.154;2023-05-21T03:15:43;11.30;;;8.60;;
3341;SDS011;1684;50.748;6.154;2023-05-21T03:18:11;20.83;;;15.17;;
3341;SDS011;1684;50.748;6.154;2023-05-21T03:20:41;24.80;;;15.80;;
3341;SDS011;1684;50.748;6.154;2023-05-21T03:23:10;25.23;;;16.60;;
3341;SDS011;1684;50.748;6.154;2023-05-21T03:25:41;16.13;;;9.83;;
3341;SDS011;1684;50.748;6.154;2023-05-21T03:28:11;16.80;;;11.47;;
3341;SDS011;1684;50.748;6.154;2023-05-21T03:30:39;18.63;;;14.23;;
3341;SDS011;1684;50.748;6.154;2023-05-21T03:33:11;27.87;;;17.17;;
3341;SDS011;1684;50.748;6.154;2023-05-21T03:35:42;22.50;;;16.20;;
3341;SDS011;1684;50.748;6.154;2023-05-21T03:38:10;23.00;;;17.33;;
3341;SDS011;1684;50.748;6.154;2023-05-21T03:40:38;25.40;;;16.13;;
3341;SDS011;1684;50.748;6.154;2023-05-21T03:43:06;22.80;;;16.87;;
3341;SDS011;1684;50.748;6.154;2023-05-21T03:45:35;11.43;;;8.40;;
3341;SDS011;1684;50.748;6.154;2023-05-21T03:48:04;18.00;;;13.83;;
3341;SDS011;1684;50.748;6.154;2023-05-21T03:50:32;17.77;;;13.73;;
3341;SDS011;1684;50.748;6.154;2023-05-21T03:53:03;14.03;;;9.43;;
3341;SDS011;1684;50.748;6.154;2023-05-21T03:55:31;14.43;;;8.83;;
3341;SDS011;1684;50.748;6.154;2023-05-21T03:58:00;20.00;;;16.13;;
3341;SDS011;1684;50.748;6.154;2023-05-21T04:00:28;23.67;;;16.60;;
3341;SDS011;1684;50.748;6.154;2023-05-21T04:02:57;10.57;;;8.50;;
3341;SDS011;1684;50.748;6.154;2023-05-21T04:05:26;11.20;;;8.20;;
3341;SDS011;1684;50.748;6.154;2023-05-21T04:07:54;12.30;;;9.13;;
3341;SDS011;1684;50.748;6.154;2023-05-21T04:10:25;11.87;;;10.60;;
3341;SDS011;1684;50.748;6.154;2023-05-21T04:12:53;15.70;;;10.30;;
3341;SDS011;1684;50.748;6.154;2023-05-21T04:15:21;13.87;;;9.97;;
3341;SDS011;1684;50.748;6.154;2023-05-21T04:17:50;10.00;;;7.70;;
3341;SDS011;1684;50.748;6.154;2023-05-21T04:20:19;13.50;;;8.30;;
3341;SDS011;1684;50.748;6.154;2023-05-21T04:22:48;12.10;;;9.30;;
3341;SDS011;1684;50.748;6.154;2023-05-21T04:25:16;10.70;;;8.57;;
3341;SDS011;1684;50.748;6.154;2023-05-21T04:27:46;29.13;;;17.60;;
3341;SDS011;1684;50.748;6.154;2023-05-21T04:30:15;13.83;;;8.23;;
3341;SDS011;1684;50.748;6.154;2023-05-21T04:32:45;12.40;;;9.50;;
3341;SDS011;1684;50.748;6.154;2023-05-21T04:35:13;13.87;;;10.67;;
3341;SDS011;1684;50.748;6.154;2023-05-21T04:37:42;12.73;;;10.27;;
3341;SDS011;1684;50.748;6.154;2023-05-21T04:40:11;12.00;;;8.50;;
3341;SDS011;1684;50.748;6.154;2023-05-21T04:42:43;12.23;;;10.03;;
3341;SDS011;1684;50.748;6.154;2023-05-21T04:45:14;14.03;;;9.50;;
3341;SDS011;1684;50.748;6.154;2023-05-21T04:47:43;13.33;;;10.70;;
3341;SDS011;1684;50.748;6.154;2023-05-21T04:50:13;12.40;;;9.57;;
3341;SDS011;1684;50.748;6.154;2023-05-21T04:52:41;23.60;;;19.03;;
3341;SDS011;1684;50.748;6.154;2023-05-21T04:55:10;10.83;;;8.47;;
3341;SDS011;1684;50.748;6.154;2023-05-21T04:57:39;33.10;;;17.80;;
3341;SDS011;1684;50.748;6.154;2023-05-21T05:00:07;12.77;;;9.50;;
3341;SDS011;1684;50.748;6.154;2023-05-21T05:02:38;15.07;;;10.47;;
3341;SDS011;1684;50.748;6.154;2023-05-21T05:05:07;14.50;;;11.47;;
3341;SDS011;1684;50.748;6.154;2023-05-21T05:07:35;15.17;;;11.33;;
3341;SDS011;1684;50.748;6.154;2023-05-21T05:10:04;22.73;;;15.70;;
3341;SDS011;1684;50.748;6.154;2023-05-21T05:12:32;13.43;;;9.77;;
3341;SDS011;1684;50.748;6.154;2023-05-21T05:15:01;14.87;;;10.47;;
3341;SDS011;1684;50.748;6.154;2023-05-21T05:17:29;15.90;;;9.60;;
3341;SDS011;1684;50.748;6.154;2023-05-21T05:19:59;13.07;;;9.50;;
3341;SDS011;1684;50.748;6.154;2023-05-21T05:22:27;15.00;;;11.07;;
3341;SDS011;1684;50.748;6.154;2023-05-21T05:24:55;13.17;;;10.10;;
3341;SDS011;1684;50.748;6.154;2023-05-21T05:27:24;11.10;;;8.73;;
3341;SDS011;1684;50.748;6.154;2023-05-21T05:29:52;15.63;;;10.20;;
3341;SDS011;1684;50.748;6.154;2023-05-21T05:32:20;14.40;;;10.07;;
3341;SDS011;1684;50.748;6.154;2023-05-21T05:34:48;14.00;;;9.90;;
3341;SDS011;1684;50.748;6.154;2023-05-21T05:37:18;15.47;;;10.80;;
3341;SDS011;1684;50.748;6.154;2023-05-21T05:39:46;13.13;;;10.00;;
3341;SDS011;1684;50.748;6.154;2023-05-21T05:42:15;13.70;;;9.60;;
3341;SDS011;1684;50.748;6.154;2023-05-21T05:44:43;17.97;;;11.13;;
3341;SDS011;1684;50.748;6.154;2023-05-21T05:47:11;13.37;;;9.37;;
3341;SDS011;1684;50.748;6.154;2023-05-21T05:49:39;13.67;;;10.63;;
3341;SDS011;1684;50.748;6.154;2023-05-21T05:52:07;15.70;;;10.13;;
3341;SDS011;1684;50.748;6.154;2023-05-21T05:54:37;12.87;;;9.37;;
3341;SDS011;1684;50.748;6.154;2023-05-21T05:57:05;11.77;;;9.30;;
3341;SDS011;1684;50.748;6.154;2023-05-21T05:59:34;14.50;;;10.50;;
3341;SDS011;1684;50.748;6.154;2023-05-21T06:02:02;11.50;;;9.20;;
3341;SDS011;1684;50.748;6.154;2023-05-21T06:04:30;10.17;;;8.50;;
3341;SDS011;1684;50.748;6.154;2023-05-21T06:06:59;12.10;;;10.20;;
3341;SDS011;1684;50.748;6.154;2023-05-21T06:09:27;12.73;;;10.00;;
3341;SDS011;1684;50.748;6.154;2023-05-21T06:11:57;17.97;;;9.53;;
3341;SDS011;1684;50.748;6.154;2023-05-21T06:14:25;13.20;;;9.90;;
3341;SDS011;1684;50.748;6.154;2023-05-21T06:16:53;14.93;;;11.00;;
3341;SDS011;1684;50.748;6.154;2023-05-21T06:19:22;14.80;;;10.43;;
3341;SDS011;1684;50.748;6.154;2023-05-21T06:21:50;11.87;;;8.37;;
3341;SDS011;1684;50.748;6.154;2023-05-21T06:24:19;13.93;;;9.77;;
3341;SDS011;1684;50.748;6.154;2023-05-21T06:26:47;13.30;;;8.73;;
3341;SDS011;1684;50.748;6.154;2023-05-21T06:29:17;15.77;;;9.93;;
3341;SDS011;1684;50.748;6.154;2023-05-21T06:31:45;12.30;;;9.27;;
3341;SDS011;1684;50.748;6.154;2023-05-21T06:34:13;13.53;;;10.67;;
3341;SDS011;1684;50.748;6.154;2023-05-21T06:36:42;17.13;;;10.13;;
3341;SDS011;1684;50.748;6.154;2023-05-21T06:39:11;14.40;;;10.37;;
3341;SDS011;1684;50.748;6.154;2023-05-21T06:41:39;16.40;;;9.60;;
3341;SDS011;1684;50.748;6.154;2023-05-21T06:44:07;22.27;;;14.87;;
3341;SDS011;1684;50.748;6.154;2023-05-21T06:46:37;18.30;;;10.77;;
3341;SDS011;1684;50.748;6.154;2023-05-21T06:49:05;13.67;;;9.00;;
3341;SDS011;1684;50.748;6.154;2023-05-21T06:51:34;18.07;;;12.13;;
3341;SDS011;1684;50.748;6.154;2023-05-21T06:54:02;12.23;;;9.27;;
3341;SDS011;1684;50.748;6.154;2023-05-21T06:56:30;16.17;;;11.37;;
3341;SDS011;1684;50.748;6.154;2023-05-21T06:58:59;13.23;;;10.17;;
3341;SDS011;1684;50.748;6.154;2023-05-21T07:01:27;14.87;;;10.47;;
3341;SDS011;1684;50.748;6.154;2023-05-21T07:03:57;20.80;;;15.37;;
3341;SDS011;1684;50.748;6.154;2023-05-21T07:06:25;17.17;;;13.77;;
3341;SDS011;1684;50.748;6.154;2023-05-21T07:08:53;21.83;;;16.63;;
3341;SDS011;1684;50.748;6.154;2023-05-21T07:11:22;19.80;;;12.80;;
3341;SDS011;1684;50.748;6.154;2023-05-21T07:13:53;12.50;;;9.80;;
3341;SDS011;1684;50.748;6.154;2023-05-21T07:16:22;19.10;;;14.77;;
3341;SDS011;1684;50.748;6.154;2023-05-21T07:18:50;15.13;;;11.63;;
3341;SDS011;1684;50.748;6.154;2023-05-21T07:21:20;16.53;;;10.30;;
3341;SDS011;1684;50.748;6.154;2023-05-21T07:23:48;15.10;;;10.97;;
3341;SDS011;1684;50.748;6.154;2023-05-21T07:26:16;14.70;;;10.07;;
3341;SDS011;1684;50.748;6.154;2023-05-21T07:28:44;13.93;;;9.93;;
3341;SDS011;1684;50.748;6.154;2023-05-21T07:31:13;14.13;;;9.20;;
3341;SDS011;1684;50.748;6.154;2023-05-21T07:33:41;12.10;;;9.13;;
3341;SDS011;1684;50.748;6.154;2023-05-21T07:36:09;12.27;;;8.83;;
3341;SDS011;1684;50.748;6.154;2023-05-21T07:38:39;13.10;;;9.43;;
3341;SDS011;1684;50.748;6.154;2023-05-21T07:41:08;13.00;;;9.50;;
3341;SDS011;1684;50.748;6.154;2023-05-21T07:43:37;13.27;;;10.43;;
3341;SDS011;1684;50.748;6.154;2023-05-21T07:46:05;15.37;;;11.93;;
3341;SDS011;1684;50.748;6.154;2023-05-21T07:48:34;12.63;;;9.33;;
3341;SDS011;1684;50.748;6.154;2023-05-21T07:51:02;12.83;;;9.53;;
3341;SDS011;1684;50.748;6.154;2023-05-21T07:53:30;16.80;;;11.80;;
3341;SDS011;1684;50.748;6.154;2023-05-21T07:56:00;15.17;;;12.10;;
3341;SDS011;1684;50.748;6.154;2023-05-21T07:58:28;13.60;;;10.23;;
3341;SDS011;1684;50.748;6.154;2023-05-21T08:00:58;16.87;;;10.27;;
3341;SDS011;1684;50.748;6.154;2023-05-21T08:03:28;15.13;;;10.13;;
3341;SDS011;1684;50.748;6.154;2023-05-21T08:05:56;14.40;;;12.60;;
3341;SDS011;1684;50.748;6.154;2023-05-21T08:08:24;15.10;;;10.83;;
3341;SDS011;1684;50.748;6.154;2023-05-21T08:10:53;15.83;;;11.33;;
3341;SDS011;1684;50.748;6.154;2023-05-21T08:13:23;13.70;;;10.43;;
3341;SDS011;1684;50.748;6.154;2023-05-21T08:15:51;13.77;;;10.10;;
3341;SDS011;1684;50.748;6.154;2023-05-21T08:18:19;14.87;;;11.50;;
3341;SDS011;1684;50.748;6.154;2023-05-21T08:20:49;20.87;;;13.00;;
3341;SDS011;1684;50.748;6.154;2023-05-21T08:23:17;18.53;;;12.20;;
3341;SDS011;1684;50.748;6.154;2023-05-21T08:25:45;14.80;;;10.37;;
3341;SDS011;1684;50.748;6.154;2023-05-21T08:28:14;13.10;;;9.33;;
3341;SDS011;1684;50.748;6.154;2023-05-21T08:30:43;16.87;;;13.10;;
3341;SDS011;1684;50.748;6.154;2023-05-21T08:33:12;21.03;;;15.90;;
3341;SDS011;1684;50.748;6.154;2023-05-21T08:35:40;17.40;;;13.30;;
3341;SDS011;1684;50.748;6.154;2023-05-21T08:38:08;21.43;;;12.60;;
3341;SDS011;1684;50.748;6.154;2023-05-21T08:40:37;20.70;;;15.43;;
3341;SDS011;1684;50.748;6.154;2023-05-21T08:43:06;17.70;;;13.67;;
3341;SDS011;1684;50.748;6.154;2023-05-21T08:45:40;19.20;;;15.40;;
3341;SDS011;1684;50.748;6.154;2023-05-21T08:48:10;14.80;;;13.20;;
3341;SDS011;1684;50.748;6.154;2023-05-21T08:50:38;20.33;;;16.60;;
3341;SDS011;1684;50.748;6.154;2023-05-21T08:53:07;22.90;;;17.70;;
3341;SDS011;1684;50.748;6.154;2023-05-21T08:55:53;18.97;;;15.10;;
3341;SDS011;1684;50.748;6.154;2023-05-21T08:58:22;22.40;;;13.10;;
3341;SDS011;1684;50.748;6.154;2023-05-21T09:00:50;15.30;;;12.80;;
3341;SDS011;1684;50.748;6.154;2023-05-21T09:03:20;20.40;;;13.87;;
3341;SDS011;1684;50.748;6.154;2023-05-21T09:05:49;15.90;;;12.83;;
3341;SDS011;1684;50.748;6.154;2023-05-21T09:08:19;16.00;;;12.90;;
3341;SDS011;1684;50.748;6.154;2023-05-21T09:10:49;15.80;;;12.93;;
3341;SDS011;1684;50.748;6.154;2023-05-21T09:13:18;17.53;;;15.20;;
3341;SDS011;1684;50.748;6.154;2023-05-21T09:15:47;18.43;;;13.73;;
3341;SDS011;1684;50.748;6.154;2023-05-21T09:18:16;17.93;;;14.40;;
3341;SDS011;1684;50.748;6.154;2023-05-21T09:20:46;16.80;;;13.97;;
3341;SDS011;1684;50.748;6.154;2023-05-21T09:23:16;19.33;;;16.53;;
3341;SDS011;1684;50.748;6.154;2023-05-21T09:25:44;18.33;;;13.20;;
3341;SDS011;1684;50.748;6.154;2023-05-21T09:28:14;15.60;;;12.50;;
3341;SDS011;1684;50.748;6.154;2023-05-21T09:30:42;14.70;;;13.10;;
3341;SDS011;1684;50.748;6.154;2023-05-21T09:33:11;17.20;;;13.20;;
3341;SDS011;1684;50.748;6.154;2023-05-21T09:35:43;18.37;;;13.43;;
3341;SDS011;1684;50.748;6.154;2023-05-21T09:38:14;17.87;;;13.10;;
3341;SDS011;1684;50.748;6.154;2023-05-21T09:40:43;16.30;;;12.50;;
3341;SDS011;1684;50.748;6.154;2023-05-21T09:43:12;16.80;;;13.10;;
3341;SDS011;1684;50.748;6.154;2023-05-21T09:45:49;16.67;;;11.90;;
3341;SDS011;1684;50.748;6.154;2023-05-21T09:48:31;19.80;;;12.63;;
3341;SDS011;1684;50.748;6.154;2023-05-21T09:51:11;17.80;;;13.07;;
3341;SDS011;1684;50.748;6.154;2023-05-21T09:53:44;17.00;;;13.73;;
3341;SDS011;1684;50.748;6.154;2023-05-21T09:56:16;19.20;;;14.03;;
3341;SDS011;1684;50.748;6.154;2023-05-21T09:58:44;14.77;;;12.17;;
3341;SDS011;1684;50.748;6.154;2023-05-21T10:01:13;18.40;;;14.90;;
3341;SDS011;1684;50.748;6.154;2023-05-21T10:03:41;18.53;;;12.60;;
3341;SDS011;1684;50.748;6.154;2023-05-21T10:06:15;16.27;;;12.17;;
3341;SDS011;1684;50.748;6.154;2023-05-21T10:08:47;18.10;;;12.13;;
3341;SDS011;1684;50.748;6.154;2023-05-21T10:11:15;22.80;;;17.93;;
3341;SDS011;1684;50.748;6.154;2023-05-21T10:13:44;16.60;;;12.97;;
3341;SDS011;1684;50.748;6.154;2023-05-21T10:16:15;16.50;;;14.17;;
3341;SDS011;1684;50.748;6.154;2023-05-21T10:18:45;14.90;;;12.87;;
3341;SDS011;1684;50.748;6.154;2023-05-21T10:21:14;20.10;;;13.87;;
3341;SDS011;1684;50.748;6.154;2023-05-21T10:23:43;18.47;;;13.83;;
3341;SDS011;1684;50.748;6.154;2023-05-21T10:26:14;18.00;;;12.90;;
3341;SDS011;1684;50.748;6.154;2023-05-21T10:28:43;15.97;;;12.83;;
3341;SDS011;1684;50.748;6.154;2023-05-21T10:31:11;17.90;;;13.10;;
3341;SDS011;1684;50.748;6.154;2023-05-21T10:33:40;18.37;;;15.40;;
3341;SDS011;1684;50.748;6.154;2023-05-21T10:36:09;15.90;;;14.17;;
3341;SDS011;1684;50.748;6.154;2023-05-21T10:38:37;17.37;;;14.73;;
3341;SDS011;1684;50.748;6.154;2023-05-21T10:41:06;21.50;;;14.80;;
3341;SDS011;1684;50.748;6.154;2023-05-21T10:43:42;17.33;;;12.80;;
3341;SDS011;1684;50.748;6.154;2023-05-21T10:46:15;15.87;;;12.63;;
3341;SDS011;1684;50.748;6.154;2023-05-21T10:48:51;18.63;;;11.47;;
3341;SDS011;1684;50.748;6.154;2023-05-21T10:51:25;20.67;;;15.67;;
3341;SDS011;1684;50.748;6.154;2023-05-21T10:56:45;19.17;;;16.90;;
3341;SDS011;1684;50.748;6.154;2023-05-21T10:59:18;32.20;;;22.60;;
3341;SDS011;1684;50.748;6.154;2023-05-21T11:01:52;19.90;;;15.87;;
3341;SDS011;1684;50.748;6.154;2023-05-21T11:04:22;19.30;;;14.97;;
3341;SDS011;1684;50.748;6.154;2023-05-21T11:06:53;21.20;;;15.33;;
3341;SDS011;1684;50.748;6.154;2023-05-21T11:09:23;21.47;;;13.67;;
3341;SDS011;1684;50.748;6.154;2023-05-21T11:11:52;19.80;;;17.20;;
3341;SDS011;1684;50.748;6.154;2023-05-21T11:14:31;18.70;;;13.73;;
3341;SDS011;1684;50.748;6.154;2023-05-21T11:17:01;20.70;;;16.87;;
3341;SDS011;1684;50.748;6.154;2023-05-21T11:19:34;23.57;;;20.83;;
3341;SDS011;1684;50.748;6.154;2023-05-21T11:22:18;19.30;;;15.90;;
3341;SDS011;1684;50.748;6.154;2023-05-21T11:24:47;24.17;;;20.53;;
3341;SDS011;1684;50.748;6.154;2023-05-21T11:27:32;21.90;;;18.00;;
3341;SDS011;1684;50.748;6.154;2023-05-21T11:30:04;17.30;;;15.50;;
3341;SDS011;1684;50.748;6.154;2023-05-21T11:32:35;21.60;;;16.10;;
3341;SDS011;1684;50.748;6.154;2023-05-21T11:35:05;20.83;;;16.83;;
3341;SDS011;1684;50.748;6.154;2023-05-21T11:37:34;20.93;;;18.67;;
3341;SDS011;1684;50.748;6.154;2023-05-21T11:40:15;18.60;;;16.60;;
3341;SDS011;1684;50.748;6.154;2023-05-21T11:42:47;18.40;;;16.40;;
3341;SDS011;1684;50.748;6.154;2023-05-21T11:45:18;23.97;;;21.23;;
3341;SDS011;1684;50.748;6.154;2023-05-21T11:47:46;19.53;;;17.03;;
3341;SDS011;1684;50.748;6.154;2023-05-21T11:50:15;22.23;;;16.33;;
3341;SDS011;1684;50.748;6.154;2023-05-21T11:52:44;23.23;;;18.73;;
3341;SDS011;1684;50.748;6.154;2023-05-21T11:55:12;19.87;;;15.17;;
3341;SDS011;1684;50.748;6.154;2023-05-21T11:57:41;23.33;;;17.37;;
3341;SDS011;1684;50.748;6.154;2023-05-21T12:00:13;29.77;;;25.63;;
3341;SDS011;1684;50.748;6.154;2023-05-21T12:02:48;23.17;;;19.63;;
3341;SDS011;1684;50.748;6.154;2023-05-21T12:05:17;24.70;;;19.80;;
3341;SDS011;1684;50.748;6.154;2023-05-21T12:07:46;23.30;;;18.97;;
3341;SDS011;1684;50.748;6.154;2023-05-21T12:10:19;20.90;;;17.80;;
3341;SDS011;1684;50.748;6.154;2023-05-21T12:12:48;22.70;;;18.37;;
3341;SDS011;1684;50.748;6.154;2023-05-21T12:15:22;24.37;;;19.47;;
3341;SDS011;1684;50.748;6.154;2023-05-21T12:17:52;22.97;;;19.90;;
3341;SDS011;1684;50.748;6.154;2023-05-21T12:20:24;21.53;;;19.43;;
3341;SDS011;1684;50.748;6.154;2023-05-21T12:22:53;21.67;;;18.60;;
3341;SDS011;1684;50.748;6.154;2023-05-21T12:25:21;20.00;;;16.83;;
3341;SDS011;1684;50.748;6.154;2023-05-21T12:27:50;23.53;;;16.93;;
3341;SDS011;1684;50.748;6.154;2023-05-21T12:30:23;33.77;;;26.50;;
3341;SDS011;1684;50.748;6.154;2023-05-21T12:32:56;26.30;;;22.20;;
3341;SDS011;1684;50.748;6.154;2023-05-21T12:35:24;23.97;;;19.40;;
3341;SDS011;1684;50.748;6.154;2023-05-21T12:37:53;30.03;;;22.93;;
3341;SDS011;1684;50.748;6.154;2023-05-21T12:40:21;21.03;;;17.80;;
3341;SDS011;1684;50.748;6.154;2023-05-21T12:43:02;19.30;;;14.70;;
3341;SDS011;1684;50.748;6.154;2023-05-21T12:45:31;22.77;;;17.60;;
3341;SDS011;1684;50.748;6.154;2023-05-21T12:48:01;27.23;;;22.03;;
3341;SDS011;1684;50.748;6.154;2023-05-21T12:50:30;26.90;;;24.13;;
3341;SDS011;1684;50.748;6.154;2023-05-21T12:53:01;30.70;;;24.23;;
3341;SDS011;1684;50.748;6.154;2023-05-21T12:55:30;20.20;;;16.53;;
3341;SDS011;1684;50.748;6.154;2023-05-21T12:57:59;19.33;;;15.00;;
3341;SDS011;1684;50.748;6.154;2023-05-21T13:00:29;21.50;;;17.67;;
3341;SDS011;1684;50.748;6.154;2023-05-21T13:02:57;18.23;;;16.33;;
3341;SDS011;1684;50.748;6.154;2023-05-21T13:05:27;20.20;;;15.80;;
3341;SDS011;1684;50.748;6.154;2023-05-21T13:07:56;28.17;;;18.17;;
3341;SDS011;1684;50.748;6.154;2023-05-21T13:10:24;20.47;;;17.80;;
3341;SDS011;1684;50.748;6.154;2023-05-21T13:12:52;21.83;;;18.33;;
3341;SDS011;1684;50.748;6.154;2023-05-21T13:15:20;24.03;;;17.17;;
3341;SDS011;1684;50.748;6.154;2023-05-21T13:17:49;19.90;;;15.00;;
3341;SDS011;1684;50.748;6.154;2023-05-21T13:20:21;21.70;;;17.00;;
3341;SDS011;1684;50.748;6.154;2023-05-21T13:22:53;19.33;;;17.03;;
3341;SDS011;1684;50.748;6.154;2023-05-21T13:25:22;23.73;;;18.90;;
3341;SDS011;1684;50.748;6.154;2023-05-21T13:27:54;25.57;;;20.53;;
3341;SDS011;1684;50.748;6.154;2023-05-21T13:30:23;30.97;;;21.63;;
3341;SDS011;1684;50.748;6.154;2023-05-21T13:32:51;22.40;;;18.27;;
3341;SDS011;1684;50.748;6.154;2023-05-21T13:35:19;23.93;;;18.57;;
3341;SDS011;1684;50.748;6.154;2023-05-21T13:37:48;26.80;;;19.70;;
3341;SDS011;1684;50.748;6.154;2023-05-21T13:40:19;31.17;;;22.60;;
3341;SDS011;1684;50.748;6.154;2023-05-21T13:42:47;27.90;;;20.90;;
3341;SDS011;1684;50.748;6.154;2023-05-21T13:45:16;22.70;;;17.40;;
3341;SDS011;1684;50.748;6.154;2023-05-21T13:47:45;16.03;;;9.50;;
3341;SDS011;1684;50.748;6.154;2023-05-21T13:50:14;22.30;;;18.70;;
3341;SDS011;1684;50.748;6.154;2023-05-21T13:52:42;21.33;;;16.93;;
3341;SDS011;1684;50.748;6.154;2023-05-21T13:55:11;20.90;;;16.90;;
3341;SDS011;1684;50.748;6.154;2023-05-21T13:57:42;23.17;;;19.10;;
3341;SDS011;1684;50.748;6.154;2023-05-21T14:00:11;26.07;;;22.30;;
3341;SDS011;1684;50.748;6.154;2023-05-21T14:02:41;23.60;;;20.40;;
3341;SDS011;1684;50.748;6.154;2023-05-21T14:05:10;26.07;;;20.70;;
3341;SDS011;1684;50.748;6.154;2023-05-21T14:07:38;25.40;;;22.07;;
3341;SDS011;1684;50.748;6.154;2023-05-21T14:10:07;26.37;;;22.37;;
3341;SDS011;1684;50.748;6.154;2023-05-21T14:12:36;24.20;;;18.77;;
3341;SDS011;1684;50.748;6.154;2023-05-21T14:15:07;19.00;;;16.90;;
3341;SDS011;1684;50.748;6.154;2023-05-21T14:17:36;21.73;;;19.30;;
3341;SDS011;1684;50.748;6.154;2023-05-21T14:20:06;20.27;;;15.07;;
3341;SDS011;1684;50.748;6.154;2023-05-21T14:22:34;22.03;;;18.17;;
3341;SDS011;1684;50.748;6.154;2023-05-21T14:25:03;20.90;;;15.97;;
3341;SDS011;1684;50.748;6.154;2023-05-21T14:27:31;18.70;;;16.47;;
3341;SDS011;1684;50.748;6.154;2023-05-21T14:29:59;21.60;;;19.27;;
3341;SDS011;1684;50.748;6.154;2023-05-21T14:32:29;21.37;;;18.10;;
3341;SDS011;1684;50.748;6.154;2023-05-21T14:34:57;20.43;;;15.07;;
3341;SDS011;1684;50.748;6.154;2023-05-21T14:37:26;18.53;;;13.47;;
3341;SDS011;1684;50.748;6.154;2023-05-21T14:39:54;16.77;;;15.07;;
3341;SDS011;1684;50.748;6.154;2023-05-21T14:42:22;21.20;;;17.73;;
3341;SDS011;1684;50.748;6.154;2023-05-21T14:44:50;17.73;;;15.83;;
3341;SDS011;1684;50.748;6.154;2023-05-21T14:47:19;21.47;;;17.33;;
3341;SDS011;1684;50.748;6.154;2023-05-21T14:49:48;24.17;;;18.93;;
3341;SDS011;1684;50.748;6.154;2023-05-21T14:52:17;22.08;;;18.48;;
3341;SDS011;1684;50.748;6.154;2023-05-21T14:54:45;20.07;;;17.70;;
3341;SDS011;1684;50.748;6.154;2023-05-21T14:57:13;20.87;;;17.87;;
3341;SDS011;1684;50.748;6.154;2023-05-21T14:59:42;21.13;;;17.40;;
3341;SDS011;1684;50.748;6.154;2023-05-21T15:02:10;21.90;;;17.93;;
3341;SDS011;1684;50.748;6.154;2023-05-21T15:04:38;24.17;;;19.37;;
3341;SDS011;1684;50.748;6.154;2023-05-21T15:07:08;19.77;;;17.50;;